sensor_id;sensor_type;location;lat;lon;timestamp;pressure;altitude;pressure_sealevel;temperature;humidity
66547;BME280;53400;50.364;14.874;2024-02-21T00:05:38;99368.50;;;4.99;100.00
66547;BME280;53400;50.364;14.874;2024-02-21T00:22:59;99357.19;;;4.91;100.00
66547;BME280;53400;50.364;14.874;2024-02-21T00:25:42;99352.38;;;5.01;100.00
66547;BME280;53400;50.364;14.874;2024-02-21T00:28:48;99350.44;;;5.16;100.00
66547;BME280;53400;50.364;14.874;2024-02-21T00:34:10;99344.31;;;5.16;100.00
66547;BME280;53400;50.364;14.874;2024-02-21T00:36:51;99343.28;;;5.17;100.00
66547;BME280;53400;50.364;14.874;2024-02-21T00:40:18;99345.00;;;4.96;100.00
66547;BME280;53400;50.364;14.874;2024-02-21T00:43:06;99341.88;;;4.93;100.00
66547;BME280;53400;50.364;14.874;2024-02-21T00:48:37;99339.78;;;5.10;100.00
66547;BME280;53400;50.364;14.874;2024-02-21T00:51:17;99335.66;;;5.07;100.00
66547;BME280;53400;50.364;14.874;2024-02-21T00:54:56;99329.94;;;5.03;100.00
66547;BME280;53400;50.364;14.874;2024-02-21T01:01:20;99324.50;;;4.90;100.00
66547;BME280;53400;50.364;14.874;2024-02-21T01:03:59;99320.25;;;4.96;100.00
66547;BME280;53400;50.364;14.874;2024-02-21T01:06:34;99321.75;;;5.05;100.00
66547;BME280;53400;50.364;14.874;2024-02-21T01:09:15;99313.66;;;5.13;100.00
66547;BME280;53400;50.364;14.874;2024-02-21T01:15:33;99308.28;;;5.35;100.00
66547;BME280;53400;50.364;14.874;2024-02-21T01:21:27;99300.03;;;4.95;100.00
66547;BME280;53400;50.364;14.874;2024-02-21T01:27:39;99291.78;;;4.83;100.00
66547;BME280;53400;50.364;14.874;2024-02-21T01:30:56;99295.06;;;5.13;100.00
66547;BME280;53400;50.364;14.874;2024-02-21T01:33:49;99281.31;;;5.31;100.00
66547;BME280;53400;50.364;14.874;2024-02-21T01:39:57;99272.22;;;5.47;100.00
66547;BME280;53400;50.364;14.874;2024-02-21T01:42:41;99268.19;;;5.58;100.00
66547;BME280;53400;50.364;14.874;2024-02-21T01:46:01;99269.75;;;5.45;100.00
66547;BME280;53400;50.364;14.874;2024-02-21T01:48:47;99262.44;;;5.54;100.00
66547;BME280;53400;50.364;14.874;2024-02-21T01:51:35;99263.34;;;5.33;100.00
66547;BME280;53400;50.364;14.874;2024-02-21T01:54:24;99262.56;;;5.11;100.00
66547;BME280;53400;50.364;14.874;2024-02-21T01:57:26;99249.44;;;5.31;100.00
66547;BME280;53400;50.364;14.874;2024-02-21T02:00:58;99256.94;;;5.62;100.00
66547;BME280;53400;50.364;14.874;2024-02-21T02:03:42;99264.38;;;5.73;100.00
66547;BME280;53400;50.364;14.874;2024-02-21T02:06:22;99260.25;;;5.64;100.00
66547;BME280;53400;50.364;14.874;2024-02-21T02:09:07;99259.41;;;5.57;100.00
66547;BME280;53400;50.364;14.874;2024-02-21T02:12:07;99253.88;;;5.59;100.00
66547;BME280;53400;50.364;14.874;2024-02-21T02:15:11;99252.28;;;5.71;100.00
66547;BME280;53400;50.364;14.874;2024-02-21T02:18:31;99241.44;;;5.66;100.00
66547;BME280;53400;50.364;14.874;2024-02-21T02:24:15;99233.38;;;5.46;100.00
66547;BME280;53400;50.364;14.874;2024-02-21T02:26:49;99239.97;;;5.57;100.00
66547;BME280;53400;50.364;14.874;2024-02-21T02:30:26;99237.56;;;5.68;100.00
66547;BME280;53400;50.364;14.874;2024-02-21T02:32:31;99228.09;;;5.52;100.00
66547;BME280;53400;50.364;14.874;2024-02-21T02:35:23;99237.53;;;5.62;100.00
66547;BME280;53400;50.364;14.874;2024-02-21T02:38:25;99224.25;;;5.62;100.00
66547;BME280;53400;50.364;14.874;2024-02-21T02:41:29;99227.59;;;5.77;100.00
66547;BME280;53400;50.364;14.874;2024-02-21T02:45:32;99216.09;;;5.63;100.00
66547;BME280;53400;50.364;14.874;2024-02-21T02:48:35;99211.31;;;5.45;100.00
66547;BME280;53400;50.364;14.874;2024-02-21T02:51:33;99200.09;;;5.57;100.00
66547;BME280;53400;50.364;14.874;2024-02-21T02:57:38;99198.81;;;5.39;100.00
66547;BME280;53400;50.364;14.874;2024-02-21T03:00:32;99191.28;;;5.49;100.00
66547;BME280;53400;50.364;14.874;2024-02-21T03:04:01;99190.63;;;5.41;100.00
66547;BME280;53400;50.364;14.874;2024-02-21T03:06:50;99194.38;;;5.53;100.00
66547;BME280;53400;50.364;14.874;2024-02-21T03:13:45;99188.50;;;5.71;100.00
66547;BME280;53400;50.364;14.874;2024-02-21T03:17:03;99191.91;;;5.45;100.00
66547;BME280;53400;50.364;14.874;2024-02-21T03:19:57;99185.63;;;5.66;100.00
66547;BME280;53400;50.364;14.874;2024-02-21T03:23:09;99189.72;;;5.68;100.00
66547;BME280;53400;50.364;14.874;2024-02-21T03:25:46;99178.44;;;5.60;100.00
66547;BME280;53400;50.364;14.874;2024-02-21T03:32:10;99184.88;;;5.79;100.00
66547;BME280;53400;50.364;14.874;2024-02-21T03:38:29;99192.19;;;5.70;100.00
66547;BME280;53400;50.364;14.874;2024-02-21T03:41:28;99178.81;;;5.43;100.00
66547;BME280;53400;50.364;14.874;2024-02-21T03:47:40;99178.09;;;5.69;100.00
66547;BME280;53400;50.364;14.874;2024-02-21T03:50:24;99177.59;;;5.46;100.00
66547;BME280;53400;50.364;14.874;2024-02-21T03:53:38;99169.69;;;5.66;100.00
66547;BME280;53400;50.364;14.874;2024-02-21T03:56:44;99171.97;;;5.75;100.00
66547;BME280;53400;50.364;14.874;2024-02-21T03:59:22;99169.69;;;5.66;100.00
66547;BME280;53400;50.364;14.874;2024-02-21T04:02:18;99167.53;;;5.41;100.00
66547;BME280;53400;50.364;14.874;2024-02-21T04:04:58;99166.97;;;5.46;100.00
66547;BME280;53400;50.364;14.874;2024-02-21T04:37:16;99152.66;;;5.47;100.00
66547;BME280;53400;50.364;14.874;2024-02-21T04:38:54;99142.09;;;5.67;100.00
66547;BME280;53400;50.364;14.874;2024-02-21T04:41:41;99137.59;;;5.61;100.00
66547;BME280;53400;50.364;14.874;2024-02-21T04:44:45;99128.97;;;5.45;100.00
66547;BME280;53400;50.364;14.874;2024-02-21T04:47:20;99130.03;;;5.58;100.00
66547;BME280;53400;50.364;14.874;2024-02-21T04:50:26;99126.91;;;5.47;100.00
66547;BME280;53400;50.364;14.874;2024-02-21T04:53:10;99126.97;;;5.67;100.00
66547;BME280;53400;50.364;14.874;2024-02-21T04:55:52;99130.72;;;5.25;100.00
66547;BME280;53400;50.364;14.874;2024-02-21T04:58:45;99133.91;;;5.62;100.00
66547;BME280;53400;50.364;14.874;2024-02-21T05:01:32;99125.69;;;5.50;100.00
66547;BME280;53400;50.364;14.874;2024-02-21T05:04:06;99126.97;;;5.61;100.00
66547;BME280;53400;50.364;14.874;2024-02-21T05:07:16;99136.53;;;5.48;100.00
66547;BME280;53400;50.364;14.874;2024-02-21T05:09:57;99118.13;;;5.53;100.00
66547;BME280;53400;50.364;14.874;2024-02-21T05:12:59;99118.94;;;5.47;100.00
66547;BME280;53400;50.364;14.874;2024-02-21T05:15:59;99123.63;;;5.39;100.00
66547;BME280;53400;50.364;14.874;2024-02-21T05:19:05;99114.88;;;5.51;100.00
66547;BME280;53400;50.364;14.874;2024-02-21T05:21:48;99119.59;;;5.56;100.00
66547;BME280;53400;50.364;14.874;2024-02-21T05:24:38;99124.16;;;5.21;100.00
66547;BME280;53400;50.364;14.874;2024-02-21T05:27:41;99118.50;;;5.37;100.00
66547;BME280;53400;50.364;14.874;2024-02-21T05:30:28;99120.31;;;5.23;100.00
66547;BME280;53400;50.364;14.874;2024-02-21T05:34:12;99115.56;;;5.19;100.00
66547;BME280;53400;50.364;14.874;2024-02-21T05:36:24;99112.34;;;5.23;100.00
66547;BME280;53400;50.364;14.874;2024-02-21T05:39:31;99115.97;;;5.16;100.00
66547;BME280;53400;50.364;14.874;2024-02-21T05:42:09;99114.75;;;5.18;100.00
66547;BME280;53400;50.364;14.874;2024-02-21T05:48:04;99107.88;;;4.89;100.00
66547;BME280;53400;50.364;14.874;2024-02-21T05:50:41;99107.13;;;5.02;100.00
66547;BME280;53400;50.364;14.874;2024-02-21T05:53:32;99112.41;;;5.02;100.00
66547;BME280;53400;50.364;14.874;2024-02-21T05:56:20;99114.06;;;4.96;100.00
66547;BME280;53400;50.364;14.874;2024-02-21T05:59:14;99108.78;;;5.10;100.00
66547;BME280;53400;50.364;14.874;2024-02-21T06:01:57;99110.25;;;5.12;100.00
66547;BME280;53400;50.364;14.874;2024-02-21T06:04:51;99102.56;;;4.89;100.00
66547;BME280;53400;50.364;14.874;2024-02-21T06:07:43;99112.13;;;4.83;100.00
66547;BME280;53400;50.364;14.874;2024-02-21T06:10:31;99101.81;;;5.02;100.00
66547;BME280;53400;50.364;14.874;2024-02-21T06:13:04;99099.91;;;4.89;100.00
66547;BME280;53400;50.364;14.874;2024-02-21T06:15:44;99101.81;;;5.02;100.00
66547;BME280;53400;50.364;14.874;2024-02-21T06:18:58;99097.13;;;5.04;100.00
66547;BME280;53400;50.364;14.874;2024-02-21T06:22:21;99101.50;;;5.25;100.00
66547;BME280;53400;50.364;14.874;2024-02-21T06:25:12;99093.16;;;5.41;100.00
66547;BME280;53400;50.364;14.874;2024-02-21T06:27:47;99093.13;;;5.21;100.00
66547;BME280;53400;50.364;14.874;2024-02-21T06:30:47;99092.97;;;5.29;100.00
66547;BME280;53400;50.364;14.874;2024-02-21T06:33:26;99094.16;;;5.27;100.00
66547;BME280;53400;50.364;14.874;2024-02-21T06:36:33;99101.91;;;5.28;100.00
66547;BME280;53400;50.364;14.874;2024-02-21T06:39:14;99084.81;;;5.44;100.00
66547;BME280;53400;50.364;14.874;2024-02-21T06:41:53;99089.78;;;5.61;100.00
66547;BME280;53400;50.364;14.874;2024-02-21T06:44:41;99095.25;;;5.52;100.00
66547;BME280;53400;50.364;14.874;2024-02-21T06:47:21;99093.78;;;5.30;100.00
66547;BME280;53400;50.364;14.874;2024-02-21T06:53:46;99096.88;;;5.53;100.00
66547;BME280;53400;50.364;14.874;2024-02-21T06:56:40;99100.81;;;5.64;100.00
66547;BME280;53400;50.364;14.874;2024-02-21T06:59:35;99102.66;;;5.70;100.00
66547;BME280;53400;50.364;14.874;2024-02-21T07:02:24;99104.69;;;5.75;100.00
66547;BME280;53400;50.364;14.874;2024-02-21T07:05:11;99096.13;;;5.73;100.00
66547;BME280;53400;50.364;14.874;2024-02-21T07:08:03;99097.34;;;5.77;100.00
66547;BME280;53400;50.364;14.874;2024-02-21T07:11:05;99097.22;;;6.12;100.00
66547;BME280;53400;50.364;14.874;2024-02-21T07:13:47;99091.47;;;6.08;100.00
66547;BME280;53400;50.364;14.874;2024-02-21T07:16:44;99089.66;;;6.09;100.00
66547;BME280;53400;50.364;14.874;2024-02-21T07:19:35;99096.38;;;6.11;100.00
66547;BME280;53400;50.364;14.874;2024-02-21T07:22:43;99087.19;;;5.94;100.00
66547;BME280;53400;50.364;14.874;2024-02-21T07:28:39;99082.25;;;5.91;100.00
66547;BME280;53400;50.364;14.874;2024-02-21T07:31:38;99074.53;;;6.03;100.00
66547;BME280;53400;50.364;14.874;2024-02-21T07:34:18;99076.31;;;5.89;100.00
66547;BME280;53400;50.364;14.874;2024-02-21T07:36:56;99079.81;;;6.16;100.00
66547;BME280;53400;50.364;14.874;2024-02-21T07:39:28;99075.13;;;6.31;100.00
66547;BME280;53400;50.364;14.874;2024-02-21T07:42:07;99069.19;;;6.23;100.00
66547;BME280;53400;50.364;14.874;2024-02-21T07:44:53;99071.44;;;6.12;100.00
66547;BME280;53400;50.364;14.874;2024-02-21T07:47:49;99067.97;;;6.12;100.00
66547;BME280;53400;50.364;14.874;2024-02-21T07:50:35;99075.53;;;6.15;100.00
66547;BME280;53400;50.364;14.874;2024-02-21T07:56:57;99083.91;;;6.05;100.00
66547;BME280;53400;50.364;14.874;2024-02-21T08:00:01;99081.47;;;5.97;100.00
66547;BME280;53400;50.364;14.874;2024-02-21T08:06:14;99078.81;;;6.30;100.00
66547;BME280;53400;50.364;14.874;2024-02-21T08:08:49;99080.63;;;6.23;100.00
66547;BME280;53400;50.364;14.874;2024-02-21T08:15:27;99076.34;;;6.29;100.00
66547;BME280;53400;50.364;14.874;2024-02-21T08:18:18;99072.63;;;6.50;100.00
66547;BME280;53400;50.364;14.874;2024-02-21T08:21:31;99071.81;;;6.56;100.00
66547;BME280;53400;50.364;14.874;2024-02-21T08:39:23;99056.63;;;6.76;100.00
66547;BME280;53400;50.364;14.874;2024-02-21T08:48:15;99056.00;;;6.74;100.00
66547;BME280;53400;50.364;14.874;2024-02-21T08:52:06;99056.00;;;6.68;100.00
66547;BME280;53400;50.364;14.874;2024-02-21T08:55:51;99052.28;;;6.82;100.00
66547;BME280;53400;50.364;14.874;2024-02-21T08:59:36;99054.31;;;6.86;100.00
66547;BME280;53400;50.364;14.874;2024-02-21T09:02:39;99047.38;;;6.79;100.00
66547;BME280;53400;50.364;14.874;2024-02-21T09:05:59;99062.63;;;7.10;100.00
66547;BME280;53400;50.364;14.874;2024-02-21T09:26:54;99038.16;;;7.26;100.00
66547;BME280;53400;50.364;14.874;2024-02-21T09:30:09;99021.78;;;7.23;100.00
66547;BME280;53400;50.364;14.874;2024-02-21T09:33:07;99013.72;;;7.36;100.00
66547;BME280;53400;50.364;14.874;2024-02-21T09:46:14;99029.63;;;7.49;100.00
66547;BME280;53400;50.364;14.874;2024-02-21T09:49:07;99032.59;;;7.66;100.00
66547;BME280;53400;50.364;14.874;2024-02-21T09:51:53;99027.75;;;7.81;99.71
66547;BME280;53400;50.364;14.874;2024-02-21T09:55:23;99026.81;;;7.69;100.00
66547;BME280;53400;50.364;14.874;2024-02-21T09:58:33;99013.44;;;7.76;100.00
66547;BME280;53400;50.364;14.874;2024-02-21T10:29:55;98990.91;;;8.95;94.22
66547;BME280;53400;50.364;14.874;2024-02-21T10:37:59;98994.22;;;9.09;91.64
66547;BME280;53400;50.364;14.874;2024-02-21T11:22:44;98956.69;;;9.34;88.75
66547;BME280;53400;50.364;14.874;2024-02-21T11:28:38;98940.25;;;9.31;88.29
66547;BME280;53400;50.364;14.874;2024-02-21T11:36:54;98924.78;;;9.21;87.50
66547;BME280;53400;50.364;14.874;2024-02-21T11:46:36;98922.28;;;8.96;87.70
66547;BME280;53400;50.364;14.874;2024-02-21T11:50:57;98916.97;;;9.08;89.23
66547;BME280;53400;50.364;14.874;2024-02-21T11:54:31;98902.06;;;9.42;87.48
66547;BME280;53400;50.364;14.874;2024-02-21T12:17:45;98878.94;;;9.83;84.77
66547;BME280;53400;50.364;14.874;2024-02-21T12:20:55;98860.31;;;10.00;83.87
66547;BME280;53400;50.364;14.874;2024-02-21T12:25:15;98863.56;;;9.43;85.21
66547;BME280;53400;50.364;14.874;2024-02-21T12:39:42;98826.13;;;10.02;84.46
66547;BME280;53400;50.364;14.874;2024-02-21T12:43:28;98829.63;;;9.67;84.09
66547;BME280;53400;50.364;14.874;2024-02-21T12:46:35;98845.94;;;9.77;85.05
66547;BME280;53400;50.364;14.874;2024-02-21T12:52:01;98827.81;;;9.56;87.67
66547;BME280;53400;50.364;14.874;2024-02-21T13:09:37;98771.13;;;10.23;82.70
66547;BME280;53400;50.364;14.874;2024-02-21T13:14:12;98771.56;;;10.31;83.07
66547;BME280;53400;50.364;14.874;2024-02-21T13:16:23;98763.19;;;9.99;82.48
66547;BME280;53400;50.364;14.874;2024-02-21T13:46:20;98715.09;;;10.78;83.65
66547;BME280;53400;50.364;14.874;2024-02-21T13:53:22;98703.72;;;10.54;81.29
66547;BME280;53400;50.364;14.874;2024-02-21T14:07:00;98682.03;;;10.73;79.99
66547;BME280;53400;50.364;14.874;2024-02-21T14:14:02;98678.47;;;10.67;80.82
66547;BME280;53400;50.364;14.874;2024-02-21T14:17:07;98677.66;;;10.67;81.34
66547;BME280;53400;50.364;14.874;2024-02-21T14:20:23;98674.41;;;10.65;82.49
66547;BME280;53400;50.364;14.874;2024-02-21T14:25:49;98657.34;;;10.71;80.66
66547;BME280;53400;50.364;14.874;2024-02-21T14:30:03;98648.34;;;10.94;80.08
66547;BME280;53400;50.364;14.874;2024-02-21T14:34:41;98650.34;;;11.03;78.90
66547;BME280;53400;50.364;14.874;2024-02-21T14:37:32;98653.78;;;10.99;78.17
66547;BME280;53400;50.364;14.874;2024-02-21T14:44:31;98640.44;;;11.04;79.61
66547;BME280;53400;50.364;14.874;2024-02-21T14:54:46;98637.09;;;10.75;78.43
66547;BME280;53400;50.364;14.874;2024-02-21T15:03:10;98607.44;;;10.82;78.98
66547;BME280;53400;50.364;14.874;2024-02-21T15:13:50;98594.16;;;10.92;79.60
66547;BME280;53400;50.364;14.874;2024-02-21T15:16:56;98601.59;;;10.85;81.10
66547;BME280;53400;50.364;14.874;2024-02-21T15:19:34;98592.28;;;10.92;79.73
66547;BME280;53400;50.364;14.874;2024-02-21T15:22:21;98595.03;;;10.59;80.21
66547;BME280;53400;50.364;14.874;2024-02-21T15:25:18;98602.53;;;10.56;81.41
66547;BME280;53400;50.364;14.874;2024-02-21T15:28:08;98581.16;;;10.62;81.70
66547;BME280;53400;50.364;14.874;2024-02-21T15:30:48;98584.41;;;10.64;83.96
66547;BME280;53400;50.364;14.874;2024-02-21T15:33:39;98590.75;;;10.57;80.66
66547;BME280;53400;50.364;14.874;2024-02-21T15:36:31;98591.16;;;10.66;81.62
66547;BME280;53400;50.364;14.874;2024-02-21T15:39:06;98587.84;;;10.59;82.01
66547;BME280;53400;50.364;14.874;2024-02-21T15:41:52;98585.44;;;10.79;80.53
66547;BME280;53400;50.364;14.874;2024-02-21T15:44:29;98577.88;;;10.76;81.30
66547;BME280;53400;50.364;14.874;2024-02-21T15:47:15;98587.31;;;10.79;79.97
66547;BME280;53400;50.364;14.874;2024-02-21T15:49:47;98573.63;;;10.59;80.10
66547;BME280;53400;50.364;14.874;2024-02-21T15:52:46;98580.31;;;10.56;80.76
66547;BME280;53400;50.364;14.874;2024-02-21T15:55:32;98579.91;;;10.47;80.22
66547;BME280;53400;50.364;14.874;2024-02-21T15:58:09;98580.31;;;10.39;80.03
66547;BME280;53400;50.364;14.874;2024-02-21T16:01:10;98577.34;;;10.24;82.08
66547;BME280;53400;50.364;14.874;2024-02-21T16:04:41;98576.38;;;10.13;83.01
66547;BME280;53400;50.364;14.874;2024-02-21T16:09:14;98568.44;;;10.18;82.04
66547;BME280;53400;50.364;14.874;2024-02-21T16:11:16;98564.81;;;10.07;82.68
66547;BME280;53400;50.364;14.874;2024-02-21T16:14:57;98560.97;;;10.03;82.27
66547;BME280;53400;50.364;14.874;2024-02-21T16:18:53;98562.91;;;9.91;83.96
66547;BME280;53400;50.364;14.874;2024-02-21T16:25:47;98549.97;;;9.54;84.19
66547;BME280;53400;50.364;14.874;2024-02-21T16:30:57;98542.03;;;9.31;85.36
66547;BME280;53400;50.364;14.874;2024-02-21T17:12:29;98487.09;;;8.31;89.61
66547;BME280;53400;50.364;14.874;2024-02-21T17:15:10;98492.66;;;8.29;89.00
66547;BME280;53400;50.364;14.874;2024-02-21T17:18:13;98489.53;;;7.97;90.47
66547;BME280;53400;50.364;14.874;2024-02-21T17:21:24;98498.81;;;8.06;90.32
66547;BME280;53400;50.364;14.874;2024-02-21T17:24:29;98492.19;;;8.09;89.90
66547;BME280;53400;50.364;14.874;2024-02-21T17:27:42;98491.06;;;8.04;89.68
66547;BME280;53400;50.364;14.874;2024-02-21T17:31:14;98485.25;;;7.96;90.27
66547;BME280;53400;50.364;14.874;2024-02-21T17:34:34;98484.78;;;7.99;89.77
66547;BME280;53400;50.364;14.874;2024-02-21T17:37:43;98486.31;;;8.07;89.08
66547;BME280;53400;50.364;14.874;2024-02-21T17:40:41;98480.16;;;7.94;89.35
66547;BME280;53400;50.364;14.874;2024-02-21T17:43:38;98476.09;;;7.92;89.99
66547;BME280;53400;50.364;14.874;2024-02-21T17:47:19;98469.38;;;8.01;89.03
66547;BME280;53400;50.364;14.874;2024-02-21T17:50:10;98466.00;;;7.94;89.14
66547;BME280;53400;50.364;14.874;2024-02-21T17:53:16;98465.16;;;7.81;89.59
66547;BME280;53400;50.364;14.874;2024-02-21T17:55:47;98463.06;;;7.60;90.31
66547;BME280;53400;50.364;14.874;2024-02-21T17:59:01;98462.47;;;7.46;91.47
66547;BME280;53400;50.364;14.874;2024-02-21T18:01:53;98451.91;;;7.51;92.19
66547;BME280;53400;50.364;14.874;2024-02-21T18:05:06;98462.59;;;7.63;91.17
66547;BME280;53400;50.364;14.874;2024-02-21T18:45:51;98433.75;;;7.60;90.95
66547;BME280;53400;50.364;14.874;2024-02-21T18:48:45;98420.66;;;7.47;91.75
66547;BME280;53400;50.364;14.874;2024-02-21T18:51:57;98417.06;;;7.53;90.92
66547;BME280;53400;50.364;14.874;2024-02-21T18:55:27;98417.28;;;7.40;92.02
66547;BME280;53400;50.364;14.874;2024-02-21T19:02:25;98421.81;;;7.63;90.44
66547;BME280;53400;50.364;14.874;2024-02-21T19:07:15;98423.56;;;7.69;90.81
66547;BME280;53400;50.364;14.874;2024-02-21T19:09:02;98415.81;;;7.67;90.93
66547;BME280;53400;50.364;14.874;2024-02-21T19:11:34;98408.38;;;7.69;89.65
66547;BME280;53400;50.364;14.874;2024-02-21T19:14:26;98402.22;;;7.57;90.14
66547;BME280;53400;50.364;14.874;2024-02-21T19:17:21;98399.91;;;7.72;88.87
66547;BME280;53400;50.364;14.874;2024-02-21T19:24:02;98394.38;;;7.74;88.87
66547;BME280;53400;50.364;14.874;2024-02-21T19:27:04;98391.00;;;7.55;89.57
66547;BME280;53400;50.364;14.874;2024-02-21T19:33:15;98388.06;;;7.21;91.87
66547;BME280;53400;50.364;14.874;2024-02-21T19:39:00;98377.84;;;7.18;91.62
66547;BME280;53400;50.364;14.874;2024-02-21T19:43:09;98383.09;;;7.25;92.60
66547;BME280;53400;50.364;14.874;2024-02-21T19:48:03;98363.19;;;6.85;93.87
66547;BME280;53400;50.364;14.874;2024-02-21T19:51:19;98355.06;;;6.80;93.62
66547;BME280;53400;50.364;14.874;2024-02-21T19:54:19;98354.13;;;6.75;94.04
66547;BME280;53400;50.364;14.874;2024-02-21T19:57:46;98336.44;;;6.80;93.12
66547;BME280;53400;50.364;14.874;2024-02-21T20:01:35;98343.28;;;6.88;91.29
66547;BME280;53400;50.364;14.874;2024-02-21T20:05:46;98336.03;;;7.07;90.12
66547;BME280;53400;50.364;14.874;2024-02-21T20:08:48;98343.22;;;7.18;89.49
66547;BME280;53400;50.364;14.874;2024-02-21T20:12:11;98345.84;;;6.95;90.90
66547;BME280;53400;50.364;14.874;2024-02-21T20:14:57;98346.31;;;6.92;91.57
66547;BME280;53400;50.364;14.874;2024-02-21T20:17:55;98333.66;;;6.87;91.58
66547;BME280;53400;50.364;14.874;2024-02-21T20:20:23;98338.31;;;6.92;91.38
66547;BME280;53400;50.364;14.874;2024-02-21T20:24:06;98327.19;;;6.83;91.77
66547;BME280;53400;50.364;14.874;2024-02-21T20:26:41;98323.22;;;7.27;90.03
66547;BME280;53400;50.364;14.874;2024-02-21T20:33:23;98309.88;;;7.04;89.38
66547;BME280;53400;50.364;14.874;2024-02-21T20:37:08;98293.03;;;6.80;91.61
66547;BME280;53400;50.364;14.874;2024-02-21T20:40:20;98291.53;;;6.42;95.51
66547;BME280;53400;50.364;14.874;2024-02-21T20:44:33;98280.72;;;6.25;98.30
66547;BME280;53400;50.364;14.874;2024-02-21T20:51:33;98270.22;;;5.82;100.00
66547;BME280;53400;50.364;14.874;2024-02-21T20:54:58;98268.00;;;5.79;100.00
66547;BME280;53400;50.364;14.874;2024-02-21T20:58:29;98269.31;;;5.88;100.00
66547;BME280;53400;50.364;14.874;2024-02-21T21:01:04;98259.16;;;5.66;100.00
66547;BME280;53400;50.364;14.874;2024-02-21T21:04:23;98248.06;;;5.69;100.00
66547;BME280;53400;50.364;14.874;2024-02-21T21:11:47;98241.69;;;6.07;100.00
66547;BME280;53400;50.364;14.874;2024-02-21T21:15:15;98248.41;;;6.10;100.00
66547;BME280;53400;50.364;14.874;2024-02-21T21:22:03;98251.53;;;5.88;100.00
66547;BME280;53400;50.364;14.874;2024-02-21T21:55:25;98230.78;;;5.79;100.00
66547;BME280;53400;50.364;14.874;2024-02-21T21:58:41;98229.59;;;5.74;100.00
66547;BME280;53400;50.364;14.874;2024-02-21T22:02:23;98215.69;;;5.61;100.00
66547;BME280;53400;50.364;14.874;2024-02-21T22:05:50;98206.47;;;5.63;100.00
66547;BME280;53400;50.364;14.874;2024-02-21T22:08:45;98197.88;;;5.80;100.00
66547;BME280;53400;50.364;14.874;2024-02-21T22:19:56;98191.13;;;5.95;100.00
66547;BME280;53400;50.364;14.874;2024-02-21T22:23:34;98182.06;;;5.85;100.00
66547;BME280;53400;50.364;14.874;2024-02-21T22:27:07;98184.72;;;5.85;100.00
66547;BME280;53400;50.364;14.874;2024-02-21T22:31:03;98166.81;;;6.10;100.00
66547;BME280;53400;50.364;14.874;2024-02-21T22:34:36;98172.81;;;5.87;100.00
66547;BME280;53400;50.364;14.874;2024-02-21T22:37:55;98173.00;;;5.74;100.00
66547;BME280;53400;50.364;14.874;2024-02-21T22:44:23;98156.44;;;5.72;100.00
66547;BME280;53400;50.364;14.874;2024-02-21T22:48:19;98164.25;;;5.85;100.00
66547;BME280;53400;50.364;14.874;2024-02-21T22:51:21;98153.84;;;5.53;100.00
66547;BME280;53400;50.364;14.874;2024-02-21T22:57:42;98153.50;;;5.32;100.00
66547;BME280;53400;50.364;14.874;2024-02-21T23:01:03;98154.59;;;5.42;100.00
66547;BME280;53400;50.364;14.874;2024-02-21T23:07:28;98145.97;;;5.28;100.00
66547;BME280;53400;50.364;14.874;2024-02-21T23:10:53;98139.63;;;5.11;100.00
66547;BME280;53400;50.364;14.874;2024-02-21T23:13:51;98131.66;;;5.11;100.00
66547;BME280;53400;50.364;14.874;2024-02-21T23:16:55;98125.25;;;5.37;100.00
66547;BME280;53400;50.364;14.874;2024-02-21T23:20:01;98121.19;;;5.35;100.00
66547;BME280;53400;50.364;14.874;2024-02-21T23:25:25;98112.72;;;5.26;100.00
66547;BME280;53400;50.364;14.874;2024-02-21T23:28:00;98107.09;;;5.34;100.00
66547;BME280;53400;50.364;14.874;2024-02-21T23:38:22;98090.47;;;5.09;100.00
66547;BME280;53400;50.364;14.874;2024-02-21T23:42:59;98082.88;;;5.12;100.00
66547;BME280;53400;50.364;14.874;2024-02-21T23:44:39;98085.66;;;5.17;100.00
66547;BME280;53400;50.364;14.874;2024-02-21T23:47:46;98086.47;;;5.18;100.00
66547;BME280;53400;50.364;14.874;2024-02-21T23:50:36;98081.31;;;5.04;100.00
66547;BME280;53400;50.364;14.874;2024-02-21T23:53:48;98076.97;;;4.92;100.00
66547;BME280;53400;50.364;14.874;2024-02-21T23:56:51;98069.16;;;4.97;100.00
